Time;durP1;ratioP1;P1;durP2;ratioP2;P2;SDS_P1;SDS_P2;PMS_P1;PMS_P2;Temp;Humidity;BMP_temperature;BMP_pressure;BME280_temperature;BME280_humidity;BME280_pressure;Samples;Min_cycle;Max_cycle;Signal;HPM_P1;HPM_P2
2023/02/20 00:00:19;;;;;;;6.50;2.40;;;9.30;99.90;;;;;;4973688;28;20384;-71
2023/02/20 00:02:47;;;;;;;6.47;2.30;;;9.30;99.90;;;;;;4974192;28;20035;-72
2023/02/20 00:05:13;;;;;;;8.57;2.58;;;9.30;99.90;;;;;;4985228;28;20526;-72
2023/02/20 00:07:39;;;;;;;8.45;2.92;;;9.30;99.90;;;;;;4992955;28;20026;-73
2023/02/20 00:10:05;;;;;;;6.93;2.30;;;9.20;99.90;;;;;;4992218;28;20027;-72
2023/02/20 00:12:32;;;;;;;7.03;2.60;;;9.20;99.90;;;;;;4993313;28;20030;-72
2023/02/20 00:14:57;;;;;;;7.40;2.75;;;9.20;99.90;;;;;;4991494;28;20026;-72
2023/02/20 00:17:23;;;;;;;6.55;2.63;;;9.20;99.90;;;;;;4993784;28;20125;-72
2023/02/20 00:19:48;;;;;;;10.23;2.72;;;9.10;99.90;;;;;;4993128;28;20034;-72
2023/02/20 00:22:14;;;;;;;8.82;2.53;;;9.10;99.90;;;;;;4992651;28;20471;-72
2023/02/20 00:24:40;;;;;;;6.25;2.03;;;9.10;99.90;;;;;;4991852;28;20069;-74
2023/02/20 00:27:06;;;;;;;6.40;2.47;;;9.10;99.90;;;;;;4993530;28;20070;-75
2023/02/20 00:29:32;;;;;;;5.55;2.15;;;9.10;99.90;;;;;;4992822;28;20097;-73
2023/02/20 00:31:57;;;;;;;6.78;2.70;;;9.10;99.90;;;;;;4991701;28;20037;-73
2023/02/20 00:34:26;;;;;;;11.13;2.47;;;9.10;99.90;;;;;;4992046;28;20038;-74
2023/02/20 00:36:52;;;;;;;6.28;2.42;;;9.00;99.90;;;;;;4991695;28;20070;-74
2023/02/20 00:39:17;;;;;;;6.53;2.88;;;9.10;99.90;;;;;;4992361;28;20034;-73
2023/02/20 00:41:43;;;;;;;8.93;2.40;;;9.00;99.90;;;;;;4993318;28;20053;-75
2023/02/20 00:44:09;;;;;;;7.72;2.47;;;9.00;99.90;;;;;;4992280;28;20033;-72
2023/02/20 00:46:35;;;;;;;10.95;2.53;;;9.00;99.90;;;;;;4993368;28;20475;-73
2023/02/20 00:49:00;;;;;;;11.75;2.90;;;9.00;99.90;;;;;;4991478;28;20018;-73
2023/02/20 00:51:26;;;;;;;8.85;2.53;;;9.00;99.90;;;;;;4976588;28;20031;-73
2023/02/20 00:53:52;;;;;;;10.40;2.35;;;8.90;99.90;;;;;;4980592;28;20058;-72
2023/02/20 00:56:18;;;;;;;5.68;2.20;;;8.90;99.90;;;;;;4973872;28;20490;-71
2023/02/20 00:58:43;;;;;;;7.00;2.80;;;8.90;99.90;;;;;;4972731;28;20030;-72
2023/02/20 01:01:09;;;;;;;7.10;2.40;;;8.90;99.90;;;;;;4972534;28;20038;-72
2023/02/20 01:03:35;;;;;;;7.75;2.55;;;8.90;99.90;;;;;;4973064;28;20026;-72
2023/02/20 01:06:00;;;;;;;11.73;2.65;;;8.80;99.90;;;;;;4973186;28;20067;-72
2023/02/20 01:08:26;;;;;;;4.47;2.22;;;8.80;99.90;;;;;;4956446;28;20023;-72
2023/02/20 01:10:52;;;;;;;7.95;2.60;;;8.80;99.90;;;;;;4973168;28;20038;-72
2023/02/20 01:13:18;;;;;;;7.10;2.30;;;8.80;99.90;;;;;;4956474;28;20479;-71
2023/02/20 01:15:43;;;;;;;7.10;2.25;;;8.80;99.90;;;;;;4973583;28;20061;-73
2023/02/20 01:18:09;;;;;;;8.90;2.25;;;8.80;99.90;;;;;;4956224;28;20023;-72
2023/02/20 01:20:34;;;;;;;7.97;2.65;;;8.70;99.90;;;;;;4956373;28;20027;-72
2023/02/20 01:23:00;;;;;;;5.90;2.22;;;8.70;99.90;;;;;;4972562;28;20047;-71
2023/02/20 01:25:26;;;;;;;6.63;2.17;;;8.70;99.90;;;;;;4956393;28;20031;-72
2023/02/20 01:27:51;;;;;;;11.18;2.55;;;8.60;99.90;;;;;;4972629;28;20027;-72
2023/02/20 01:30:17;;;;;;;6.18;2.30;;;8.60;99.90;;;;;;4973572;28;20034;-72
2023/02/20 01:32:43;;;;;;;7.15;2.83;;;8.60;99.90;;;;;;4973218;28;20042;-72
2023/02/20 01:35:09;;;;;;;6.43;2.60;;;8.60;99.90;;;;;;4973413;28;20031;-72
2023/02/20 01:37:35;;;;;;;11.45;2.95;;;8.50;99.90;;;;;;4956228;28;20031;-71
2023/02/20 01:40:01;;;;;;;8.90;2.72;;;8.50;99.90;;;;;;4955321;28;20519;-72
2023/02/20 01:42:30;;;;;;;9.20;2.60;;;8.50;99.90;;;;;;4973041;28;20088;-72
2023/02/20 01:45:22;;;;;;;6.78;2.63;;;8.50;99.90;;;;;;4955367;28;20357;-72
2023/02/20 01:47:54;;;;;;;7.53;2.47;;;8.50;99.90;;;;;;4955411;28;20384;-73
2023/02/20 01:50:42;;;;;;;9.20;2.55;;;8.40;99.90;;;;;;4955948;28;20058;-72
2023/02/20 01:53:12;;;;;;;8.38;2.50;;;8.40;99.90;;;;;;4954563;28;20086;-72
2023/02/20 01:55:54;;;;;;;7.65;2.88;;;8.30;99.90;;;;;;4974167;28;20050;-72
2023/02/20 01:58:25;;;;;;;9.15;2.67;;;8.30;99.90;;;;;;4973121;28;20031;-72
2023/02/20 02:00:51;;;;;;;4.65;2.33;;;8.20;99.90;;;;;;4955349;28;20034;-72
2023/02/20 02:03:31;;;;;;;5.90;2.25;;;8.20;99.90;;;;;;4973379;28;20030;-72
2023/02/20 02:06:00;;;;;;;9.57;2.70;;;8.20;99.90;;;;;;4959212;28;20026;-72
2023/02/20 02:08:27;;;;;;;9.10;2.70;;;8.10;99.90;;;;;;4959918;28;20034;-72
2023/02/20 02:10:59;;;;;;;8.55;2.85;;;8.10;99.90;;;;;;4958930;28;20065;-71
2023/02/20 02:13:25;;;;;;;8.70;2.92;;;8.00;99.90;;;;;;4959674;28;20081;-72
2023/02/20 02:15:52;;;;;;;6.00;2.90;;;8.00;99.90;;;;;;4976226;28;20027;-73
2023/02/20 02:18:38;;;;;;;9.38;2.42;;;8.00;99.90;;;;;;4976922;28;20027;-72
2023/02/20 02:21:30;;;;;;;8.02;2.80;;;8.00;99.90;;;;;;4958927;28;20383;-72
2023/02/20 02:24:32;;;;;;;9.43;2.78;;;8.00;99.90;;;;;;4975971;28;20039;-72
2023/02/20 02:27:14;;;;;;;9.77;2.70;;;7.90;99.90;;;;;;4958732;28;20440;-72
2023/02/20 02:30:05;;;;;;;6.85;2.65;;;7.90;99.90;;;;;;4959922;28;20041;-71
2023/02/20 02:32:40;;;;;;;7.60;2.33;;;7.90;99.90;;;;;;4976540;28;20436;-72
2023/02/20 02:35:27;;;;;;;6.75;2.88;;;7.90;99.90;;;;;;4958669;28;20026;-72
2023/02/20 02:38:21;;;;;;;8.43;3.13;;;7.90;99.90;;;;;;4958492;28;20086;-72
2023/02/20 02:41:05;;;;;;;8.45;2.78;;;7.80;99.90;;;;;;4959076;28;20126;-73
2023/02/20 02:44:07;;;;;;;9.70;3.03;;;7.80;99.90;;;;;;4959316;28;20081;-72
2023/02/20 02:46:33;;;;;;;7.85;2.38;;;7.80;99.90;;;;;;4976466;28;20040;-72
2023/02/20 02:49:15;;;;;;;9.82;2.60;;;7.80;99.90;;;;;;4975548;28;20027;-72
2023/02/20 02:51:44;;;;;;;6.82;2.65;;;7.80;99.90;;;;;;4976174;28;20034;-72
2023/02/20 02:54:12;;;;;;;6.97;2.85;;;7.80;99.90;;;;;;4975489;28;20043;-72
2023/02/20 02:56:46;;;;;;;6.80;2.95;;;7.80;99.90;;;;;;4958876;28;20059;-72
2023/02/20 02:59:28;;;;;;;10.82;2.90;;;7.70;99.90;;;;;;4975567;28;20031;-72
2023/02/20 03:02:02;;;;;;;11.02;3.00;;;7.80;99.90;;;;;;4975391;28;20035;-72
2023/02/20 03:04:30;;;;;;;5.68;2.42;;;7.70;99.90;;;;;;4959093;28;20033;-72
2023/02/20 03:07:05;;;;;;;7.78;2.70;;;7.70;99.90;;;;;;4957971;28;20031;-72
2023/02/20 03:09:50;;;;;;;10.90;2.88;;;7.70;99.90;;;;;;4958896;28;20054;-72
2023/02/20 03:12:18;;;;;;;8.38;3.28;;;7.70;99.90;;;;;;4975777;28;20035;-72
2023/02/20 03:15:36;;;;;;;9.00;2.92;;;7.70;99.90;;;;;;4958585;28;20026;-72
2023/02/20 03:18:14;;;;;;;5.82;2.50;;;7.60;99.90;;;;;;4954671;28;20039;-72
2023/02/20 03:20:52;;;;;;;9.25;2.80;;;7.70;99.90;;;;;;4958713;28;20030;-72
2023/02/20 03:23:25;;;;;;;7.30;2.92;;;7.70;99.90;;;;;;4958639;28;20050;-72
2023/02/20 03:25:58;;;;;;;8.60;2.88;;;7.60;99.90;;;;;;4975525;28;20073;-73
2023/02/20 03:28:33;;;;;;;7.40;2.80;;;7.70;99.90;;;;;;4958555;28;20031;-72
2023/02/20 03:31:05;;;;;;;10.68;2.72;;;7.60;99.90;;;;;;4974859;28;20023;-72
2023/02/20 03:44:56;;;;;;;5.93;3.17;;;7.60;99.90;;;;;;4974793;28;20089;-74
2023/02/20 03:47:23;;;;;;;8.10;3.30;;;7.60;99.90;;;;;;4957878;28;20472;-72
2023/02/20 03:49:52;;;;;;;6.75;2.85;;;7.60;99.90;;;;;;4958021;28;20078;-72
2023/02/20 03:52:18;;;;;;;8.48;3.33;;;7.60;99.90;;;;;;4974950;28;20031;-72
2023/02/20 03:54:44;;;;;;;7.35;2.83;;;7.60;99.90;;;;;;4974855;28;20065;-72
2023/02/20 03:57:14;;;;;;;4.80;2.53;;;7.60;99.90;;;;;;4974651;28;20399;-72
2023/02/20 03:59:56;;;;;;;5.82;2.80;;;7.50;99.90;;;;;;4957903;28;20027;-71
2023/02/20 04:02:27;;;;;;;7.00;3.13;;;7.50;99.90;;;;;;4957691;28;20030;-71
2023/02/20 04:04:57;;;;;;;11.00;3.25;;;7.50;99.90;;;;;;4957496;28;20026;-73
2023/02/20 04:07:30;;;;;;;5.72;2.35;;;7.50;99.90;;;;;;4974936;28;20054;-71
2023/02/20 04:09:59;;;;;;;10.98;3.50;;;7.50;99.90;;;;;;4974301;28;20109;-71
2023/02/20 04:12:28;;;;;;;9.63;3.35;;;7.50;99.90;;;;;;4974611;28;20142;-71
2023/02/20 04:14:57;;;;;;;8.18;2.88;;;7.60;99.90;;;;;;4974434;28;20030;-73
2023/02/20 04:17:30;;;;;;;7.55;2.60;;;7.60;99.90;;;;;;4974744;28;20030;-71
2023/02/20 04:19:56;;;;;;;8.75;2.85;;;7.60;99.90;;;;;;4956774;28;20023;-73
2023/02/20 04:22:26;;;;;;;6.20;2.60;;;7.60;99.90;;;;;;4957240;28;20395;-71
2023/02/20 04:25:04;;;;;;;8.95;2.95;;;7.60;99.90;;;;;;4956901;28;20122;-72
2023/02/20 04:27:30;;;;;;;6.85;3.25;;;7.60;99.90;;;;;;4973704;28;20027;-71
2023/02/20 04:29:56;;;;;;;5.30;2.72;;;7.50;99.90;;;;;;4956439;28;20026;-73
2023/02/20 04:32:22;;;;;;;10.80;3.08;;;7.50;99.90;;;;;;4957228;28;20460;-71
2023/02/20 04:34:48;;;;;;;11.30;3.10;;;7.50;99.90;;;;;;4957244;28;20027;-71
2023/02/20 04:37:16;;;;;;;8.48;3.20;;;7.50;99.90;;;;;;4956490;28;20035;-72
2023/02/20 04:39:42;;;;;;;6.78;2.80;;;7.50;99.90;;;;;;4956939;28;20031;-72
2023/02/20 04:42:07;;;;;;;6.60;2.88;;;7.50;99.90;;;;;;4973417;28;20383;-73
2023/02/20 04:44:34;;;;;;;6.57;3.92;;;7.50;99.90;;;;;;4974228;28;20112;-72
2023/02/20 04:47:05;;;;;;;8.95;3.45;;;7.50;99.90;;;;;;4956164;28;20034;-72
2023/02/20 04:49:31;;;;;;;9.15;3.35;;;7.50;99.90;;;;;;4974295;28;20027;-71
2023/02/20 04:51:57;;;;;;;11.27;2.80;;;7.50;99.90;;;;;;4956256;28;20085;-73
2023/02/20 04:54:24;;;;;;;12.68;3.60;;;7.50;99.90;;;;;;4974010;28;20055;-71
2023/02/20 04:56:50;;;;;;;9.50;4.00;;;7.40;99.90;;;;;;4956694;28;20499;-72
2023/02/20 04:59:15;;;;;;;11.32;3.72;;;7.40;99.90;;;;;;4973216;28;20050;-72
2023/02/20 05:01:46;;;;;;;7.35;2.88;;;7.40;99.90;;;;;;4956545;28;20045;-73
2023/02/20 05:04:15;;;;;;;7.35;3.42;;;7.40;99.90;;;;;;4972922;28;20365;-72
2023/02/20 05:06:47;;;;;;;7.63;3.20;;;7.40;99.90;;;;;;4956517;28;20050;-72
2023/02/20 05:09:13;;;;;;;11.57;3.50;;;7.30;99.90;;;;;;4973150;28;20027;-72
2023/02/20 05:11:39;;;;;;;8.88;3.38;;;7.30;99.90;;;;;;4956676;28;20065;-72
2023/02/20 05:14:05;;;;;;;6.80;3.20;;;7.30;99.90;;;;;;4955674;28;20053;-72
2023/02/20 05:16:30;;;;;;;9.60;3.60;;;7.30;99.90;;;;;;4956074;28;20472;-72
2023/02/20 05:18:56;;;;;;;12.07;3.60;;;7.30;99.90;;;;;;4956232;28;20033;-73
2023/02/20 05:24:07;;;;;;;11.23;4.07;;;7.20;99.90;;;;;;4973026;28;20482;-72
2023/02/20 05:26:33;;;;;;;5.85;3.20;;;7.20;99.90;;;;;;4956256;28;20030;-72
2023/02/20 05:28:58;;;;;;;13.03;3.47;;;7.20;99.90;;;;;;4973170;28;20436;-73
2023/02/20 05:31:24;;;;;;;14.23;4.38;;;7.20;99.90;;;;;;4955735;28;20033;-72
2023/02/20 05:33:49;;;;;;;11.93;4.07;;;7.20;99.90;;;;;;4973243;28;20031;-71
2023/02/20 05:36:16;;;;;;;8.80;4.07;;;7.20;99.90;;;;;;4972723;28;20027;-72
2023/02/20 05:38:46;;;;;;;7.40;3.90;;;7.10;99.90;;;;;;4973189;28;20073;-72
2023/02/20 05:41:13;;;;;;;12.43;4.13;;;7.10;99.90;;;;;;4955355;28;20034;-72
2023/02/20 05:43:39;;;;;;;8.65;3.33;;;7.10;99.90;;;;;;4973745;28;20037;-72
2023/02/20 05:46:05;;;;;;;10.52;3.63;;;7.00;99.90;;;;;;4955326;28;20388;-72
2023/02/20 05:48:30;;;;;;;5.93;3.23;;;7.10;99.90;;;;;;4973472;28;20043;-72
2023/02/20 05:50:56;;;;;;;10.90;3.50;;;7.00;99.90;;;;;;4956136;28;20126;-72
2023/02/20 05:53:21;;;;;;;9.20;3.83;;;7.00;99.90;;;;;;4972605;28;20121;-72
2023/02/20 05:55:47;;;;;;;10.60;3.70;;;7.00;99.90;;;;;;4955860;28;20031;-72
2023/02/20 05:58:13;;;;;;;10.25;3.90;;;7.00;99.90;;;;;;4972928;28;20050;-73
2023/02/20 06:00:39;;;;;;;9.23;3.80;;;7.00;99.90;;;;;;4980063;28;20416;-72
2023/02/20 06:03:10;;;;;;;7.43;3.47;;;7.00;99.90;;;;;;4974380;28;20066;-73
2023/02/20 06:05:36;;;;;;;9.02;3.45;;;7.00;99.90;;;;;;4978597;28;20026;-72
2023/02/20 06:08:03;;;;;;;7.07;3.45;;;7.00;99.90;;;;;;4973024;28;20042;-75
2023/02/20 06:10:28;;;;;;;9.23;3.53;;;6.90;99.90;;;;;;4972171;28;20372;-72
2023/02/20 06:12:54;;;;;;;12.18;3.97;;;7.00;99.90;;;;;;4971911;28;20035;-72
2023/02/20 06:15:19;;;;;;;12.75;4.28;;;7.00;99.90;;;;;;4972315;28;20027;-72
2023/02/20 06:17:45;;;;;;;10.70;3.90;;;7.00;99.90;;;;;;4971844;28;20027;-72
2023/02/20 06:20:10;;;;;;;8.63;3.90;;;7.00;99.90;;;;;;4972383;28;20043;-71
2023/02/20 06:22:36;;;;;;;10.68;3.97;;;7.00;99.90;;;;;;4972984;28;20114;-72
2023/02/20 06:25:02;;;;;;;8.20;3.57;;;7.00;99.90;;;;;;4971404;28;20127;-73
2023/02/20 06:27:27;;;;;;;6.90;3.40;;;7.00;99.90;;;;;;4971596;28;20027;-72
2023/02/20 06:29:53;;;;;;;9.32;3.72;;;7.00;99.90;;;;;;4971992;28;20485;-72
2023/02/20 06:32:18;;;;;;;9.60;4.03;;;7.00;99.90;;;;;;4972464;28;20031;-72
2023/02/20 06:34:44;;;;;;;15.53;4.37;;;7.00;99.90;;;;;;4972697;28;20030;-71
2023/02/20 06:37:10;;;;;;;10.23;4.30;;;7.00;99.90;;;;;;4972125;28;20026;-72
2023/02/20 06:39:36;;;;;;;10.23;4.13;;;7.00;99.90;;;;;;4971924;28;20472;-72
2023/02/20 06:42:02;;;;;;;11.48;4.32;;;7.00;99.90;;;;;;4971433;28;20365;-73
2023/02/20 06:44:27;;;;;;;14.27;5.93;;;7.00;99.90;;;;;;4955246;28;20027;-72
2023/02/20 06:46:53;;;;;;;12.23;4.00;;;7.00;99.90;;;;;;4955717;28;20034;-71
2023/02/20 06:49:19;;;;;;;10.87;4.27;;;7.00;99.90;;;;;;4971105;28;20121;-71
2023/02/20 06:51:44;;;;;;;12.60;4.63;;;7.00;99.90;;;;;;4973365;28;20037;-71
2023/02/20 06:54:12;;;;;;;9.10;3.97;;;7.00;99.90;;;;;;4958013;28;20500;-71
2023/02/20 06:56:38;;;;;;;9.63;4.03;;;7.00;99.90;;;;;;4959061;28;20035;-71
2023/02/20 06:59:05;;;;;;;12.47;4.63;;;7.00;99.90;;;;;;4975656;28;20031;-73
2023/02/20 07:01:39;;;;;;;8.25;4.10;;;7.10;99.90;;;;;;4958784;28;20039;-71
2023/02/20 07:04:05;;;;;;;13.50;4.33;;;7.10;99.90;;;;;;4975747;28;20023;-74
2023/02/20 07:06:30;;;;;;;8.10;4.17;;;7.10;99.90;;;;;;4974719;28;20114;-72
2023/02/20 07:08:56;;;;;;;10.00;4.27;;;7.10;99.90;;;;;;4975895;28;20039;-71
2023/02/20 07:11:23;;;;;;;11.20;4.28;;;7.20;99.90;;;;;;4975575;28;20529;-71
2023/02/20 07:13:49;;;;;;;8.70;4.00;;;7.20;99.90;;;;;;4975615;28;20384;-71
2023/02/20 07:16:15;;;;;;;8.55;4.28;;;7.20;99.90;;;;;;4957939;28;20065;-71
2023/02/20 07:18:41;;;;;;;14.50;5.17;;;7.20;99.90;;;;;;4958698;28;20058;-71
2023/02/20 07:21:06;;;;;;;15.77;6.57;;;7.20;99.90;;;;;;4973777;28;20082;-74
2023/02/20 07:23:32;;;;;;;14.57;5.70;;;7.30;99.90;;;;;;4974696;28;20043;-71
2023/02/20 07:25:58;;;;;;;15.18;5.75;;;7.30;99.90;;;;;;4958436;28;20034;-71
2023/02/20 07:28:23;;;;;;;15.10;4.63;;;7.30;99.90;;;;;;4957657;28;20035;-71
2023/02/20 07:30:49;;;;;;;8.93;4.05;;;7.40;99.90;;;;;;4975807;28;20027;-71
2023/02/20 07:33:16;;;;;;;10.57;3.63;;;7.40;99.90;;;;;;4988194;28;20093;-71
2023/02/20 07:35:42;;;;;;;10.60;3.80;;;7.40;99.90;;;;;;4977574;28;20030;-71
2023/02/20 07:38:08;;;;;;;6.47;3.72;;;7.40;99.90;;;;;;4994558;28;20062;-73
2023/02/20 07:40:34;;;;;;;9.00;3.27;;;7.40;99.90;;;;;;4977356;28;20053;-71
2023/02/20 07:42:59;;;;;;;7.43;3.40;;;7.50;99.90;;;;;;4994609;28;20045;-71
2023/02/20 07:45:25;;;;;;;8.98;3.15;;;7.50;99.90;;;;;;4976635;28;20022;-71
2023/02/20 07:47:51;;;;;;;5.63;3.00;;;7.50;99.90;;;;;;4977309;28;20077;-71
2023/02/20 07:50:17;;;;;;;6.55;3.35;;;7.60;99.90;;;;;;4976608;28;20022;-71
2023/02/20 07:52:44;;;;;;;8.27;3.60;;;7.60;99.90;;;;;;4976923;28;20467;-71
2023/02/20 07:55:13;;;;;;;10.40;3.87;;;7.70;99.90;;;;;;4988080;28;20124;-73
2023/02/20 07:57:39;;;;;;;6.18;3.10;;;7.70;99.90;;;;;;4994667;28;20459;-72
2023/02/20 08:00:10;;;;;;;7.22;3.75;;;7.70;99.90;;;;;;4994337;28;20058;-72
2023/02/20 08:02:35;;;;;;;8.98;3.72;;;7.70;99.90;;;;;;4993314;28;20390;-72
2023/02/20 08:05:01;;;;;;;7.75;3.08;;;7.80;99.90;;;;;;4993260;28;20126;-72
2023/02/20 08:07:26;;;;;;;11.18;3.30;;;7.80;99.90;;;;;;4992106;28;20057;-71
2023/02/20 08:09:52;;;;;;;8.20;3.78;;;7.80;99.90;;;;;;4993077;28;20117;-72
2023/02/20 08:12:17;;;;;;;6.45;3.38;;;7.90;99.90;;;;;;4992376;28;20030;-72
2023/02/20 08:14:43;;;;;;;7.70;3.63;;;7.90;99.90;;;;;;4992172;28;20026;-72
2023/02/20 08:17:10;;;;;;;7.28;3.25;;;7.90;99.90;;;;;;4993661;28;20460;-74
2023/02/20 08:19:36;;;;;;;8.95;3.38;;;8.00;99.90;;;;;;4992844;28;20082;-72
2023/02/20 08:22:02;;;;;;;10.45;4.03;;;8.00;99.90;;;;;;4993049;28;20128;-72
2023/02/20 08:24:27;;;;;;;12.50;4.20;;;8.00;99.90;;;;;;4993257;28;20036;-72
2023/02/20 08:26:53;;;;;;;9.35;3.90;;;8.10;99.90;;;;;;4992908;28;20535;-72
2023/02/20 08:29:19;;;;;;;9.63;3.90;;;8.10;99.90;;;;;;4991995;28;20023;-72
2023/02/20 08:31:45;;;;;;;7.30;2.97;;;8.20;99.90;;;;;;4993613;28;20471;-72
2023/02/20 08:34:10;;;;;;;5.55;3.10;;;8.20;99.90;;;;;;4993469;28;20077;-73
2023/02/20 08:36:37;;;;;;;8.68;3.40;;;8.20;99.90;;;;;;4992523;28;20030;-73
2023/02/20 08:39:02;;;;;;;12.25;4.13;;;8.30;99.90;;;;;;4992503;28;20423;-72
2023/02/20 08:41:28;;;;;;;6.38;3.45;;;8.40;99.90;;;;;;4991571;28;20038;-72
2023/02/20 08:43:54;;;;;;;6.60;3.17;;;8.40;99.90;;;;;;4992314;28;20066;-72
2023/02/20 08:46:20;;;;;;;6.80;3.42;;;8.40;99.90;;;;;;4991433;28;20141;-72
2023/02/20 08:48:46;;;;;;;6.97;3.05;;;8.50;99.90;;;;;;4994033;28;20499;-72
2023/02/20 08:51:12;;;;;;;9.15;2.92;;;8.60;99.90;;;;;;4991712;28;20030;-73
2023/02/20 08:53:39;;;;;;;6.47;3.03;;;8.60;99.90;;;;;;4993354;28;20050;-72
2023/02/20 08:56:06;;;;;;;9.07;3.63;;;8.60;99.90;;;;;;4993518;28;20084;-72
2023/02/20 08:58:31;;;;;;;6.85;3.63;;;8.70;99.90;;;;;;4974912;28;20023;-72
2023/02/20 09:00:57;;;;;;;8.20;3.20;;;8.70;99.90;;;;;;4992763;28;20033;-72
2023/02/20 09:03:23;;;;;;;6.57;3.10;;;8.70;99.90;;;;;;4974776;28;20475;-72
2023/02/20 09:05:48;;;;;;;7.15;3.22;;;8.70;99.90;;;;;;4993092;28;20034;-71
2023/02/20 09:08:14;;;;;;;8.88;4.03;;;8.70;99.90;;;;;;4992064;28;20473;-73
2023/02/20 09:10:40;;;;;;;7.55;3.40;;;8.80;99.90;;;;;;4975614;28;20027;-72
2023/02/20 09:13:05;;;;;;;7.38;3.30;;;8.90;99.90;;;;;;4993141;28;20092;-72
2023/02/20 09:15:37;;;;;;;7.47;3.40;;;8.90;99.90;;;;;;4992277;28;20258;-73
2023/02/20 09:18:05;;;;;;;7.38;3.22;;;8.90;99.90;;;;;;4993287;28;20345;-72
2023/02/20 09:20:31;;;;;;;8.18;2.95;;;9.00;99.90;;;;;;4974876;28;20030;-72
2023/02/20 09:22:58;;;;;;;5.03;2.80;;;9.10;99.90;;;;;;4975440;28;20069;-73
2023/02/20 09:25:24;;;;;;;6.95;3.13;;;9.10;99.90;;;;;;4975080;28;20473;-73
2023/02/20 09:27:50;;;;;;;6.28;2.88;;;9.20;99.90;;;;;;4993112;28;20109;-74
2023/02/20 09:30:20;;;;;;;6.90;2.72;;;9.20;99.90;;;;;;4992078;28;20053;-72
2023/02/20 09:32:46;;;;;;;5.85;3.20;;;9.30;99.90;;;;;;4980583;28;20029;-72
2023/02/20 09:35:18;;;;;;;4.82;2.42;;;9.30;99.90;;;;;;4982598;28;20026;-72
2023/02/20 09:37:43;;;;;;;4.00;2.53;;;9.40;99.90;;;;;;4985936;28;20270;-71
2023/02/20 09:40:10;;;;;;;4.93;2.22;;;9.50;99.90;;;;;;4958416;28;20436;-73
2023/02/20 09:42:41;;;;;;;5.28;2.30;;;9.50;99.90;;;;;;4970946;28;20026;-72
2023/02/20 09:45:12;;;;;;;7.25;2.67;;;9.60;99.90;;;;;;4965278;28;20089;-72
2023/02/20 09:48:02;;;;;;;6.00;2.50;;;9.70;99.90;;;;;;4967576;28;20537;-72
2023/02/20 09:50:43;;;;;;;5.93;2.53;;;9.80;99.90;;;;;;4958516;28;20037;-72
2023/02/20 09:53:44;;;;;;;11.07;2.95;;;9.90;99.90;;;;;;4979541;28;20034;-71
2023/02/20 09:56:16;;;;;;;4.65;2.55;;;10.00;99.90;;;;;;4985703;28;20050;-72
2023/02/20 09:59:04;;;;;;;5.25;2.42;;;10.10;99.90;;;;;;4990721;28;20097;-72
2023/02/20 10:01:31;;;;;;;10.75;2.88;;;10.10;99.90;;;;;;4985944;28;20039;-72
2023/02/20 10:04:01;;;;;;;4.28;2.20;;;10.20;99.90;;;;;;4972290;28;20088;-72
2023/02/20 10:06:31;;;;;;;8.18;2.30;;;10.20;99.90;;;;;;4986065;28;20023;-73
2023/02/20 10:08:57;;;;;;;5.53;2.03;;;10.20;99.90;;;;;;4970993;28;20455;-72
2023/02/20 10:11:50;;;;;;;4.88;2.05;;;10.30;99.90;;;;;;4970641;28;20141;-72
2023/02/20 10:14:30;;;;;;;5.53;2.05;;;10.20;99.90;;;;;;4988723;28;20027;-73
2023/02/20 10:17:22;;;;;;;4.70;2.10;;;10.30;99.90;;;;;;4977847;28;20033;-72
2023/02/20 10:20:02;;;;;;;5.07;2.05;;;10.30;99.90;;;;;;4985052;28;20475;-72
2023/02/20 10:22:41;;;;;;;9.20;2.50;;;10.30;99.90;;;;;;4966883;28;20476;-72
2023/02/20 10:25:29;;;;;;;4.72;2.17;;;10.40;99.90;;;;;;4990121;28;20030;-74
2023/02/20 10:28:14;;;;;;;7.22;1.95;;;10.40;99.90;;;;;;4987573;28;20035;-72
2023/02/20 10:30:45;;;;;;;7.28;2.53;;;10.50;99.90;;;;;;4993290;28;20050;-72
2023/02/20 10:33:37;;;;;;;5.75;2.00;;;10.50;99.90;;;;;;4975589;28;20038;-73
2023/02/20 10:36:07;;;;;;;8.13;2.00;;;10.50;99.90;;;;;;4993325;28;20052;-71
2023/02/20 10:38:38;;;;;;;6.57;2.03;;;10.60;99.90;;;;;;4966823;28;20027;-73
2023/02/20 10:41:18;;;;;;;4.72;2.15;;;10.70;99.90;;;;;;4973076;28;20022;-72
2023/02/20 10:43:57;;;;;;;7.72;2.40;;;10.70;99.90;;;;;;4969532;28;20047;-73
2023/02/20 10:46:39;;;;;;;7.45;2.30;;;10.70;99.90;;;;;;4973025;28;20034;-71
2023/02/20 10:49:09;;;;;;;8.05;2.33;;;10.70;99.90;;;;;;4981746;28;21334;-72
2023/02/20 10:51:41;;;;;;;6.57;2.30;;;10.80;99.90;;;;;;4975143;28;20030;-71
2023/02/20 10:54:12;;;;;;;5.65;2.63;;;10.80;99.90;;;;;;4993206;28;20130;-72
2023/02/20 10:56:38;;;;;;;5.73;2.27;;;10.90;99.90;;;;;;4969013;28;20138;-72
2023/02/20 10:59:22;;;;;;;9.82;3.45;;;10.90;99.90;;;;;;4970449;28;20038;-72
2023/02/20 11:01:53;;;;;;;8.85;2.92;;;11.00;99.90;;;;;;4969583;28;20038;-72
2023/02/20 11:04:32;;;;;;;5.70;2.77;;;11.00;99.90;;;;;;4991325;28;20034;-72
2023/02/20 11:07:07;;;;;;;9.55;3.88;;;11.00;99.90;;;;;;4975650;28;20045;-72
2023/02/20 11:09:33;;;;;;;8.20;3.35;;;11.10;99.90;;;;;;4960616;28;20572;-71
2023/02/20 11:11:59;;;;;;;8.90;2.97;;;11.20;99.90;;;;;;4972641;28;20043;-72
2023/02/20 11:14:45;;;;;;;6.90;2.90;;;11.20;99.90;;;;;;4992078;28;20022;-71
2023/02/20 11:17:18;;;;;;;10.70;2.75;;;11.20;99.90;;;;;;4976039;28;20129;-72
2023/02/20 11:19:48;;;;;;;7.68;2.65;;;11.30;99.90;;;;;;4975181;28;20100;-72
2023/02/20 11:22:16;;;;;;;6.00;2.80;;;11.30;99.90;;;;;;4973482;28;20039;-74
2023/02/20 11:24:45;;;;;;;7.28;2.78;;;11.30;99.90;;;;;;4992744;28;20076;-73
2023/02/20 11:27:21;;;;;;;6.30;2.65;;;11.50;99.90;;;;;;4972424;28;20384;-73
2023/02/20 11:30:02;;;;;;;6.25;2.85;;;11.50;99.90;;;;;;4975495;28;20030;-73
2023/02/20 11:32:39;;;;;;;6.93;2.85;;;11.60;99.90;;;;;;4983262;28;20110;-73
2023/02/20 11:35:17;;;;;;;8.93;3.05;;;11.70;99.90;;;;;;4991189;28;20030;-73
2023/02/20 11:37:44;;;;;;;5.72;3.00;;;11.70;99.90;;;;;;4975457;28;20030;-72
2023/02/20 11:40:25;;;;;;;10.10;3.10;;;11.80;99.90;;;;;;4974091;28;20034;-72
2023/02/20 11:42:51;;;;;;;6.22;3.00;;;11.90;99.90;;;;;;4975112;28;20035;-72
2023/02/20 11:45:26;;;;;;;7.55;2.72;;;11.90;99.90;;;;;;4966770;28;20050;-73
2023/02/20 11:48:27;;;;;;;10.32;3.80;;;11.90;99.90;;;;;;4993315;28;20550;-73
2023/02/20 11:50:53;;;;;;;8.90;3.35;;;12.00;99.90;;;;;;4903024;29;20040;-72
2023/02/20 11:53:32;;;;;;;12.55;3.80;;;12.00;99.90;;;;;;4954836;28;20133;-72
2023/02/20 11:56:24;;;;;;;9.55;3.47;;;12.10;99.90;;;;;;4971347;28;20038;-73
2023/02/20 11:58:50;;;;;;;9.18;3.65;;;12.10;99.90;;;;;;4978768;28;20487;-73
2023/02/20 12:01:33;;;;;;;6.97;3.15;;;12.10;99.90;;;;;;4970533;28;20101;-73
2023/02/20 12:03:59;;;;;;;9.25;3.33;;;12.10;99.90;;;;;;4966167;28;20037;-71
2023/02/20 12:06:45;;;;;;;7.80;2.83;;;12.20;99.90;;;;;;4958687;28;20018;-71
2023/02/20 12:09:19;;;;;;;6.60;2.70;;;12.30;99.90;;;;;;4966545;28;20130;-71
2023/02/20 12:11:46;;;;;;;7.47;2.65;;;12.30;99.90;;;;;;4990500;28;20039;-71
2023/02/20 12:14:14;;;;;;;11.02;3.33;;;12.30;99.90;;;;;;4982544;28;20030;-72
2023/02/20 12:16:49;;;;;;;8.75;3.17;;;12.50;99.90;;;;;;4975875;28;20019;-71
2023/02/20 12:19:47;;;;;;;6.38;2.72;;;12.60;99.90;;;;;;4966789;28;20037;-73
2023/02/20 12:22:32;;;;;;;9.10;4.00;;;12.80;99.90;;;;;;4958687;28;20041;-72
2023/02/20 12:25:26;;;;;;;8.00;3.35;;;12.90;99.90;;;;;;4980392;28;20042;-71
2023/02/20 12:28:21;;;;;;;6.72;2.90;;;13.00;99.90;;;;;;4975246;28;20031;-72
2023/02/20 12:31:21;;;;;;;6.38;2.78;;;13.10;99.90;;;;;;4975689;28;20110;-71
2023/02/20 12:34:11;;;;;;;9.88;3.25;;;13.40;99.90;;;;;;4965535;28;20022;-72
2023/02/20 12:37:00;;;;;;;4.07;2.72;;;13.50;99.90;;;;;;4972730;28;20387;-72
2023/02/20 12:39:43;;;;;;;6.07;3.28;;;13.70;99.90;;;;;;4967029;28;20030;-73
2023/02/20 12:42:29;;;;;;;9.68;2.65;;;14.00;99.90;;;;;;4974502;28;20125;-72
2023/02/20 12:45:12;;;;;;;6.35;3.05;;;14.20;99.90;;;;;;4974471;28;20058;-72
2023/02/20 12:47:42;;;;;;;8.18;3.05;;;14.40;99.90;;;;;;4991061;28;20041;-72
2023/02/20 12:50:43;;;;;;;11.18;3.30;;;14.50;99.90;;;;;;4971948;28;20030;-71
2023/02/20 12:53:11;;;;;;;10.15;3.28;;;14.60;99.90;;;;;;4985045;28;20014;-71
2023/02/20 12:55:43;;;;;;;10.98;3.78;;;14.80;99.90;;;;;;4982711;28;20752;-72
2023/02/20 12:58:37;;;;;;;11.52;3.67;;;15.00;99.90;;;;;;4987006;28;20113;-72
2023/02/20 13:01:09;;;;;;;5.50;2.70;;;15.40;99.90;;;;;;4990620;28;20046;-71
2023/02/20 13:03:34;;;;;;;12.10;3.40;;;16.00;99.90;;;;;;4954835;28;20195;-71
2023/02/20 13:06:00;;;;;;;9.13;3.38;;;16.80;97.80;;;;;;4972239;28;20420;-73
2023/02/20 13:08:33;;;;;;;7.60;2.70;;;17.40;95.40;;;;;;4964520;28;20065;-72
2023/02/20 13:11:03;;;;;;;11.90;3.00;;;17.80;92.60;;;;;;4991684;28;20026;-72
2023/02/20 13:14:08;;;;;;;9.18;3.33;;;18.10;91.50;;;;;;4990811;28;20404;-72
2023/02/20 13:17:02;;;;;;;8.45;2.88;;;18.30;88.90;;;;;;4941261;28;20023;-72
2023/02/20 13:20:00;;;;;;;8.02;2.55;;;18.80;88.10;;;;;;4975639;28;20038;-72
2023/02/20 13:22:25;;;;;;;11.20;3.80;;;19.20;83.60;;;;;;4961516;28;20132;-72
2023/02/20 13:24:51;;;;;;;6.20;2.72;;;19.30;82.70;;;;;;4972877;28;20074;-72
2023/02/20 13:27:31;;;;;;;7.20;2.97;;;19.60;79.40;;;;;;4988329;28;20034;-73